Time;durP1;ratioP1;P1;durP2;ratioP2;P2;SDS_P1;SDS_P2;PMS_P1;PMS_P2;Temp;Humidity;BMP_temperature;BMP_pressure;BME280_temperature;BME280_humidity;BME280_pressure;Samples;Min_cycle;Max_cycle;Signal;HPM_P1;HPM_P2
2022/05/31 00:00:11;;;;;;;2.15;1.00;;;;;;;10.91;nan;98514.84;5007283;28;20105;-60
2022/05/31 00:02:37;;;;;;;1.42;1.00;;;;;;;10.82;nan;98526.13;4994089;28;20508;-60
2022/05/31 00:05:03;;;;;;;1.00;1.00;;;;;;;10.78;nan;98510.84;4988910;28;20035;-60
2022/05/31 00:07:28;;;;;;;2.20;1.10;;;;;;;10.71;nan;98517.84;4988767;28;20369;-60
2022/05/31 00:09:54;;;;;;;1.50;1.10;;;;;;;10.91;nan;98522.53;4992314;28;20395;-60
2022/05/31 00:12:19;;;;;;;1.40;1.27;;;;;;;10.89;nan;98522.56;4992279;28;20153;-60
2022/05/31 00:14:45;;;;;;;1.10;1.00;;;;;;;10.86;nan;98521.81;4987864;28;20030;-60
2022/05/31 00:17:11;;;;;;;10.07;1.30;;;;;;;10.84;nan;98523.53;4990622;28;20042;-60
2022/05/31 00:19:37;;;;;;;1.57;1.23;;;;;;;10.70;nan;98521.28;4993012;28;20044;-60
2022/05/31 00:22:08;;;;;;;2.87;1.60;;;;;;;10.60;nan;98529.22;4991450;28;20050;-61
2022/05/31 00:24:34;;;;;;;1.92;1.00;;;;;;;10.35;nan;98498.97;4988248;28;20041;-61
2022/05/31 00:27:02;;;;;;;1.30;1.20;;;;;;;10.44;nan;98523.53;4987048;28;20029;-60
2022/05/31 00:29:28;;;;;;;2.15;1.95;;;;;;;10.38;nan;98526.22;4989646;28;20046;-60
2022/05/31 00:31:53;;;;;;;5.47;1.70;;;;;;;10.50;nan;98534.50;4989353;28;20093;-60
2022/05/31 00:34:20;;;;;;;1.53;1.43;;;;;;;10.42;nan;98505.63;4987347;28;20550;-60
2022/05/31 00:36:48;;;;;;;1.20;1.10;;;;;;;10.40;nan;98520.19;4990609;28;20401;-59
2022/05/31 00:39:13;;;;;;;4.10;1.35;;;;;;;10.37;nan;98527.09;4993582;28;20037;-59
2022/05/31 00:41:40;;;;;;;0.90;0.90;;;;;;;10.28;nan;98523.00;4990788;28;20580;-59
2022/05/31 00:44:09;;;;;;;1.67;1.57;;;;;;;10.36;nan;98530.53;4987881;28;20053;-60
2022/05/31 00:46:43;;;;;;;1.27;1.20;;;;;;;10.35;nan;98534.00;4987059;28;20105;-60
2022/05/31 00:49:12;;;;;;;2.42;1.23;;;;;;;10.23;nan;98521.38;4989739;28;20097;-60
2022/05/31 00:51:46;;;;;;;2.40;1.57;;;;;;;10.13;nan;98535.22;4989389;28;20042;-61
2022/05/31 00:54:16;;;;;;;2.00;1.80;;;;;;;10.20;nan;98535.13;4987822;28;20535;-60
2022/05/31 00:56:43;;;;;;;1.30;1.20;;;;;;;10.08;nan;98518.22;4987383;28;20117;-60
2022/05/31 00:59:20;;;;;;;1.77;1.67;;;;;;;10.14;nan;98524.13;4989316;28;20030;-60
2022/05/31 01:01:51;;;;;;;1.53;1.20;;;;;;;10.06;nan;98530.22;4988287;28;20588;-60
2022/05/31 01:04:19;;;;;;;1.20;1.10;;;;;;;10.01;nan;98526.88;4988886;28;20038;-60
2022/05/31 01:06:44;;;;;;;2.33;1.30;;;;;;;9.89;nan;98519.44;4995103;28;20030;-59
2022/05/31 01:09:10;;;;;;;1.50;1.03;;;;;;;9.85;nan;98527.19;4993932;28;20388;-60
2022/05/31 01:11:42;;;;;;;1.07;0.93;;;;;;;9.75;nan;98521.41;4991106;28;20034;-60
2022/05/31 01:14:10;;;;;;;1.13;1.13;;;;;;;9.67;nan;98522.41;4989540;28;20480;-59
2022/05/31 01:16:52;;;;;;;1.50;1.40;;;;;;;9.59;nan;98528.47;4991816;28;20526;-60
2022/05/31 01:19:55;;;;;;;1.70;1.40;;;;;;;9.55;nan;98528.56;4993167;28;20037;-60
2022/05/31 01:22:03;;;;;;;1.42;1.33;;;;;;;9.51;nan;98527.78;4992057;28;20030;-60
2022/05/31 01:24:32;;;;;;;2.60;1.53;;;;;;;9.42;nan;98511.75;4993978;28;20037;-61
2022/05/31 01:27:24;;;;;;;1.53;1.30;;;;;;;9.42;nan;98532.22;4992357;28;20026;-59
2022/05/31 01:29:51;;;;;;;1.50;1.37;;;;;;;9.31;nan;98523.84;4992958;28;20042;-59
2022/05/31 01:32:16;;;;;;;1.10;1.10;;;;;;;9.31;nan;98523.84;4991403;28;20046;-59
2022/05/31 01:34:45;;;;;;;1.50;1.33;;;;;;;9.20;nan;98529.16;4995842;28;20041;-60
2022/05/31 01:37:10;;;;;;;4.00;1.50;;;;;;;9.11;nan;98521.59;4993335;28;20041;-59
2022/05/31 01:39:47;;;;;;;1.77;1.67;;;;;;;9.14;nan;98522.41;4992023;28;20037;-60
2022/05/31 01:42:29;;;;;;;1.27;1.17;;;;;;;9.15;nan;98529.22;4991030;28;20495;-60
2022/05/31 01:45:06;;;;;;;1.50;1.40;;;;;;;9.06;nan;98520.81;4998983;28;20189;-60
2022/05/31 01:47:33;;;;;;;1.57;1.47;;;;;;;9.12;nan;98529.22;4990803;28;20156;-60
2022/05/31 01:49:59;;;;;;;2.53;1.63;;;;;;;9.14;nan;98535.19;4991070;28;20038;-59
2022/05/31 01:52:26;;;;;;;3.03;1.70;;;;;;;9.17;nan;98542.81;5009485;28;20026;-60
2022/05/31 01:54:53;;;;;;;2.40;1.40;;;;;;;9.12;nan;98524.13;4995061;28;20033;-59
2022/05/31 01:57:20;;;;;;;1.50;1.20;;;;;;;9.41;nan;98545.88;4992011;28;20156;-60
2022/05/31 01:59:48;;;;;;;2.03;1.30;;;;;;;9.46;nan;98546.66;4989780;28;20590;-60
2022/05/31 02:02:16;;;;;;;1.50;1.40;;;;;;;9.41;nan;98526.25;4990772;28;20535;-60
2022/05/31 02:04:42;;;;;;;1.93;1.30;;;;;;;9.33;nan;98534.91;4989795;28;20121;-61
2022/05/31 02:07:17;;;;;;;1.70;1.50;;;;;;;9.14;nan;98529.22;4990675;28;20065;-61
2022/05/31 02:09:46;;;;;;;2.17;1.30;;;;;;;8.98;nan;98545.66;4991784;28;20103;-59
2022/05/31 02:12:13;;;;;;;1.67;1.50;;;;;;;8.96;nan;98553.34;4995354;28;20034;-61
2022/05/31 02:14:39;;;;;;;1.80;1.70;;;;;;;8.86;nan;98562.03;4993759;28;20519;-59
2022/05/31 02:17:06;;;;;;;1.40;1.30;;;;;;;8.88;nan;98542.38;4989821;28;20588;-59
2022/05/31 02:19:32;;;;;;;2.60;1.67;;;;;;;8.92;nan;98548.28;4995937;28;20428;-58
2022/05/31 02:22:02;;;;;;;1.77;1.60;;;;;;;8.83;nan;98556.94;4995783;28;20503;-59
2022/05/31 02:24:28;;;;;;;3.43;1.50;;;;;;;8.70;nan;98558.78;4993591;28;20096;-60
2022/05/31 02:26:55;;;;;;;2.03;1.90;;;;;;;8.51;nan;98557.34;4990170;28;20046;-59
2022/05/31 02:29:26;;;;;;;1.80;1.70;;;;;;;8.51;nan;98559.91;4993524;28;20026;-60
2022/05/31 02:31:53;;;;;;;2.43;2.07;;;;;;;8.52;nan;98565.84;4992475;28;20108;-60
2022/05/31 02:34:25;;;;;;;4.43;1.90;;;;;;;8.54;nan;98564.97;4992040;28;20393;-60
2022/05/31 02:36:51;;;;;;;1.80;1.70;;;;;;;8.54;nan;98570.06;4989518;28;20652;-60
2022/05/31 02:39:17;;;;;;;2.57;2.37;;;;;;;8.54;nan;98569.22;4994040;28;20032;-60
2022/05/31 02:41:43;;;;;;;2.40;1.60;;;;;;;8.49;nan;98564.16;4995695;28;20865;-60
2022/05/31 02:44:09;;;;;;;2.27;1.60;;;;;;;8.41;nan;98549.78;4990667;28;20765;-60
2022/05/31 02:46:35;;;;;;;3.40;1.57;;;;;;;8.52;nan;98563.31;4990448;28;20034;-61
2022/05/31 02:49:02;;;;;;;2.00;1.30;;;;;;;8.47;nan;98558.25;4995414;28;20464;-60
2022/05/31 02:51:27;;;;;;;1.83;1.73;;;;;;;8.56;nan;98562.41;4993665;28;20062;-61
2022/05/31 02:53:53;;;;;;;2.40;1.40;;;;;;;8.46;nan;98542.94;4991181;28;20117;-61
2022/05/31 02:56:18;;;;;;;2.20;1.70;;;;;;;8.42;nan;98548.94;4990253;28;20042;-59
2022/05/31 02:58:44;;;;;;;4.87;1.83;;;;;;;8.34;nan;98540.53;4993167;28;20041;-59
2022/05/31 03:01:18;;;;;;;2.00;1.73;;;;;;;8.41;nan;98552.34;4993440;28;20034;-61
2022/05/31 03:03:44;;;;;;;2.25;2.05;;;;;;;8.32;nan;98552.47;4988899;28;20511;-60
2022/05/31 03:06:09;;;;;;;2.20;1.80;;;;;;;8.19;nan;98544.91;4989648;28;20102;-61
2022/05/31 03:08:35;;;;;;;2.00;1.77;;;;;;;8.20;nan;98543.19;4989589;28;20419;-60
2022/05/31 03:11:02;;;;;;;2.17;1.37;;;;;;;8.26;nan;98554.19;4992712;28;20374;-60
2022/05/31 03:13:29;;;;;;;1.60;1.50;;;;;;;8.23;nan;98556.75;4989540;28;21116;-60
2022/05/31 03:15:58;;;;;;;1.90;1.73;;;;;;;8.10;nan;98532.25;4989111;28;20026;-60
2022/05/31 03:18:32;;;;;;;1.67;1.53;;;;;;;8.16;nan;98547.50;4990581;28;20052;-59
2022/05/31 03:21:04;;;;;;;3.47;2.23;;;;;;;8.30;nan;98562.69;4996572;28;20166;-60
2022/05/31 03:23:37;;;;;;;1.83;1.50;;;;;;;8.26;nan;98558.47;4989748;28;20118;-60
2022/05/31 03:26:06;;;;;;;3.83;1.70;;;;;;;8.25;nan;98555.06;4990470;28;20508;-60
2022/05/31 03:28:33;;;;;;;1.87;1.77;;;;;;;8.24;nan;98562.72;4987608;28;20038;-60
2022/05/31 03:31:01;;;;;;;2.53;2.00;;;;;;;8.18;nan;98553.44;4989972;28;20050;-60
2022/05/31 03:33:27;;;;;;;4.90;1.90;;;;;;;8.28;nan;98551.59;4988315;28;20432;-60
2022/05/31 03:35:53;;;;;;;1.70;1.60;;;;;;;8.33;nan;98554.16;4992388;28;20038;-60
2022/05/31 03:38:18;;;;;;;1.90;1.63;;;;;;;8.40;nan;98563.44;4994251;28;20040;-60
2022/05/31 03:40:56;;;;;;;1.50;1.40;;;;;;;8.44;nan;98548.06;4989362;28;20081;-60
2022/05/31 03:43:23;;;;;;;2.40;1.70;;;;;;;8.59;nan;98555.53;4990570;28;20064;-60
2022/05/31 03:45:49;;;;;;;1.70;1.50;;;;;;;8.70;nan;98555.38;4993765;28;20045;-60
2022/05/31 03:48:14;;;;;;;1.57;1.30;;;;;;;8.79;nan;98560.38;4993210;28;20046;-60
2022/05/31 03:50:40;;;;;;;1.50;1.40;;;;;;;8.96;nan;98563.56;4988973;28;20034;-60
2022/05/31 03:53:11;;;;;;;1.67;1.40;;;;;;;8.91;nan;98552.56;4990857;28;20113;-60
2022/05/31 03:55:41;;;;;;;1.30;1.20;;;;;;;9.12;nan;98543.75;4993743;28;20097;-60
2022/05/31 03:58:08;;;;;;;2.53;1.67;;;;;;;9.33;nan;98550.25;4991565;28;20033;-60
2022/05/31 04:00:33;;;;;;;2.43;1.77;;;;;;;9.49;nan;98544.88;4988640;28;20026;-60
2022/05/31 04:02:58;;;;;;;1.50;1.40;;;;;;;9.63;nan;98555.72;4991569;28;20375;-60
2022/05/31 04:05:24;;;;;;;1.20;1.20;;;;;;;9.79;nan;98547.78;4991950;28;20100;-60
2022/05/31 04:07:54;;;;;;;1.63;1.40;;;;;;;9.91;nan;98543.31;4990317;28;20030;-60
2022/05/31 04:10:20;;;;;;;1.53;1.43;;;;;;;10.07;nan;98541.31;4988654;28;20475;-60
2022/05/31 04:12:46;;;;;;;1.87;1.50;;;;;;;10.28;nan;98534.97;4990703;28;20034;-60
2022/05/31 04:15:12;;;;;;;2.83;1.80;;;;;;;10.41;nan;98527.00;4992809;28;20045;-60
2022/05/31 04:17:37;;;;;;;1.60;1.50;;;;;;;10.57;nan;98530.09;4989298;28;20064;-60
2022/05/31 04:20:03;;;;;;;1.50;1.40;;;;;;;10.87;nan;98549.97;4988121;28;20394;-60
2022/05/31 04:22:29;;;;;;;5.13;1.75;;;;;;;11.06;nan;98544.44;4993265;28;20042;-60
2022/05/31 04:24:57;;;;;;;2.55;1.50;;;;;;;11.22;nan;98554.31;4993158;28;20031;-60
2022/05/31 04:27:23;;;;;;;1.27;1.27;;;;;;;11.39;nan;98547.06;4988824;28;20078;-60
2022/05/31 04:29:48;;;;;;;4.78;1.50;;;;;;;11.51;nan;98545.09;4988515;28;20515;-60
2022/05/31 04:32:16;;;;;;;1.60;1.50;;;;;;;11.69;nan;98553.19;4992175;28;20058;-59
2022/05/31 04:34:42;;;;;;;1.80;1.70;;;;;;;11.81;nan;98552.06;4992256;28;20400;-60
2022/05/31 04:37:09;;;;;;;1.67;1.58;;;;;;;12.03;nan;98562.66;4988477;28;20038;-60
2022/05/31 04:39:35;;;;;;;2.25;1.65;;;;;;;12.12;nan;98576.13;4989216;28;20065;-60
2022/05/31 04:42:00;;;;;;;1.55;1.45;;;;;;;12.01;nan;98565.25;5000757;28;20041;-60
2022/05/31 04:44:26;;;;;;;1.73;1.63;;;;;;;12.19;nan;98572.50;4996269;28;20554;-61
2022/05/31 04:46:51;;;;;;;1.95;1.75;;;;;;;12.34;nan;98573.81;4991403;28;20067;-64
2022/05/31 04:49:17;;;;;;;1.75;1.65;;;;;;;12.34;nan;98586.69;4992495;28;20041;-63
2022/05/31 04:51:43;;;;;;;1.52;1.45;;;;;;;12.53;nan;98582.72;4992429;28;20084;-63
2022/05/31 04:54:09;;;;;;;1.65;1.55;;;;;;;12.52;nan;98575.88;4993063;28;20436;-60
2022/05/31 04:56:34;;;;;;;1.90;1.80;;;;;;;12.70;nan;98579.66;4991524;28;20454;-63
2022/05/31 04:59:00;;;;;;;2.75;2.42;;;;;;;12.85;nan;98581.81;5001683;28;20047;-61
2022/05/31 05:01:26;;;;;;;2.55;2.28;;;;;;;12.94;nan;98575.56;4996390;28;20053;-57
2022/05/31 05:03:53;;;;;;;1.90;1.80;;;;;;;13.01;nan;98579.63;4994960;28;20046;-61
2022/05/31 05:06:20;;;;;;;1.90;1.80;;;;;;;13.13;nan;98576.72;4992494;28;20038;-62
2022/05/31 05:08:45;;;;;;;2.35;1.70;;;;;;;13.13;nan;98587.00;4994786;28;20029;-62
2022/05/31 05:11:13;;;;;;;2.55;1.98;;;;;;;13.27;nan;98574.56;4995842;28;20377;-62
2022/05/31 05:13:39;;;;;;;2.08;1.83;;;;;;;13.40;nan;98580.19;4994635;28;20030;-62
2022/05/31 05:16:06;;;;;;;1.55;1.45;;;;;;;13.48;nan;98584.22;4992665;28;20103;-63
2022/05/31 05:18:32;;;;;;;1.95;1.85;;;;;;;13.47;nan;98586.81;4993324;28;20038;-62
2022/05/31 05:21:01;;;;;;;1.88;1.77;;;;;;;13.55;nan;98583.13;4994385;28;20056;-62
2022/05/31 05:23:27;;;;;;;2.50;2.30;;;;;;;13.38;nan;98579.38;4990710;28;20034;-62
2022/05/31 05:25:54;;;;;;;2.30;1.73;;;;;;;13.50;nan;98587.56;4990950;28;20034;-62
2022/05/31 05:31:05;;;;;;;2.50;1.90;;;;;;;13.63;nan;98586.28;4995497;28;20431;-63
2022/05/31 05:33:31;;;;;;;3.20;2.85;;;;;;;13.67;nan;98575.00;4991772;28;20077;-62
2022/05/31 05:35:57;;;;;;;2.10;1.98;;;;;;;13.82;nan;98583.97;4992378;28;20034;-63
2022/05/31 05:38:23;;;;;;;2.15;2.03;;;;;;;13.89;nan;98574.28;4996099;28;20361;-63
2022/05/31 05:40:49;;;;;;;1.88;1.77;;;;;;;13.92;nan;98571.63;4994304;28;20054;-61
2022/05/31 05:43:14;;;;;;;1.63;1.52;;;;;;;14.03;nan;98562.63;4990151;28;20662;-61
2022/05/31 05:45:40;;;;;;;2.10;2.00;;;;;;;14.31;nan;98578.00;4988101;28;20425;-61
2022/05/31 05:48:06;;;;;;;3.45;2.20;;;;;;;14.40;nan;98569.97;4990892;28;20434;-61
2022/05/31 05:50:36;;;;;;;3.22;2.05;;;;;;;14.34;nan;98564.16;4991848;28;20848;-61
2022/05/31 05:53:05;;;;;;;2.88;1.83;;;;;;;14.58;nan;98563.31;4990267;28;20161;-61
2022/05/31 05:55:31;;;;;;;4.57;2.10;;;;;;;14.61;nan;98573.50;4991367;28;20417;-61
2022/05/31 05:57:57;;;;;;;2.72;2.15;;;;;;;14.73;nan;98573.06;4994505;28;20080;-61
2022/05/31 06:00:23;;;;;;;3.75;1.90;;;;;;;14.89;nan;98573.38;4992529;28;20030;-60
2022/05/31 06:03:02;;;;;;;1.63;1.50;;;;;;;14.92;nan;98578.41;4989437;28;20158;-61
2022/05/31 06:05:29;;;;;;;2.78;1.63;;;;;;;15.13;nan;98585.34;4991505;28;20096;-61
2022/05/31 06:08:06;;;;;;;1.50;1.40;;;;;;;15.25;nan;98599.53;4990337;28;20060;-61
2022/05/31 06:10:44;;;;;;;2.20;2.00;;;;;;;15.33;nan;98584.56;4988063;28;20038;-61
2022/05/31 06:13:16;;;;;;;2.30;2.10;;;;;;;15.37;nan;98576.63;4987904;28;20320;-61
2022/05/31 06:15:48;;;;;;;1.67;1.58;;;;;;;15.57;nan;98581.06;4992854;28;20030;-61
2022/05/31 06:18:20;;;;;;;1.80;1.70;;;;;;;15.67;nan;98571.19;4990099;28;20657;-61
2022/05/31 06:20:49;;;;;;;6.15;1.80;;;;;;;15.67;nan;98571.19;4989400;28;20044;-61
2022/05/31 06:23:15;;;;;;;1.83;1.40;;;;;;;15.78;nan;98582.78;4991584;28;20061;-61
2022/05/31 06:25:41;;;;;;;2.92;1.40;;;;;;;16.04;nan;98575.72;4994305;28;20121;-61
2022/05/31 06:28:07;;;;;;;1.77;1.63;;;;;;;16.37;nan;98588.06;4994182;28;20045;-61
2022/05/31 06:30:32;;;;;;;1.75;1.55;;;;;;;16.36;nan;98576.00;4989627;28;20496;-61
2022/05/31 06:32:58;;;;;;;2.40;2.10;;;;;;;16.49;nan;98585.84;4992742;28;20030;-67
2022/05/31 06:35:23;;;;;;;2.28;2.10;;;;;;;16.66;nan;98578.19;4994110;28;20475;-63
2022/05/31 06:37:49;;;;;;;1.77;1.67;;;;;;;16.72;nan;98593.47;4992996;28;20484;-62
2022/05/31 06:40:15;;;;;;;1.80;1.70;;;;;;;16.67;nan;98591.09;4989583;28;20042;-62
2022/05/31 06:42:41;;;;;;;2.92;1.80;;;;;;;16.93;nan;98584.72;4991581;28;20038;-62
2022/05/31 06:45:07;;;;;;;2.10;2.00;;;;;;;17.02;nan;98581.72;4994961;28;20030;-63
2022/05/31 06:47:32;;;;;;;5.35;1.95;;;;;;;17.34;nan;98572.47;4991420;28;20540;-62
2022/05/31 06:49:58;;;;;;;2.35;1.90;;;;;;;17.40;nan;98561.78;4990829;28;20045;-62
2022/05/31 06:57:52;;;;;;;2.27;1.93;;;;;;;17.62;nan;98556.44;4990497;28;20041;-63
2022/05/31 07:00:20;;;;;;;2.63;2.42;;;;;;;17.78;nan;98558.22;4990993;28;20332;-63
2022/05/31 07:02:46;;;;;;;2.95;2.47;;;;;;;17.87;nan;98545.72;4993563;28;20026;-63
2022/05/31 07:05:12;;;;;;;3.10;1.95;;;;;;;17.83;nan;98547.63;4993170;28;20503;-63
2022/05/31 07:07:39;;;;;;;4.90;2.30;;;;;;;18.02;nan;98556.19;4989407;28;20037;-63
2022/05/31 07:10:06;;;;;;;2.85;2.35;;;;;;;18.07;nan;98543.81;4991156;28;20128;-63
2022/05/31 07:12:32;;;;;;;3.13;2.20;;;;;;;18.25;nan;98552.41;4993664;28;20025;-66
2022/05/31 07:14:58;;;;;;;4.80;2.40;;;;;;;18.35;nan;98547.56;4992875;28;20046;-63
2022/05/31 07:17:23;;;;;;;2.38;2.17;;;;;;;18.40;nan;98527.41;4988147;28;20594;-63
2022/05/31 07:19:48;;;;;;;2.88;2.55;;;;;;;18.59;nan;98535.94;4990934;28;20476;-63
2022/05/31 07:22:15;;;;;;;6.57;2.13;;;;;;;18.71;nan;98538.72;4989455;28;20088;-63
2022/05/31 07:24:40;;;;;;;11.77;3.45;;;;;;;18.80;nan;98533.97;4988759;28;20065;-64
2022/05/31 07:27:06;;;;;;;4.88;1.70;;;;;;;18.73;nan;98528.25;4989432;28;20088;-63
2022/05/31 07:29:31;;;;;;;2.67;2.25;;;;;;;18.76;nan;98529.84;4993560;28;20060;-63
2022/05/31 07:31:57;;;;;;;4.07;2.10;;;;;;;18.69;nan;98529.34;4992287;28;20982;-65
2022/05/31 07:34:25;;;;;;;4.20;2.15;;;;;;;18.73;nan;98524.81;4992565;28;20485;-63
2022/05/31 07:36:52;;;;;;;2.90;2.33;;;;;;;18.67;nan;98516.44;4988168;28;20460;-63
2022/05/31 07:39:19;;;;;;;2.38;1.95;;;;;;;18.81;nan;98507.91;4990834;28;20139;-63
2022/05/31 07:41:49;;;;;;;2.97;2.45;;;;;;;18.91;nan;98511.69;4986975;28;20112;-64
2022/05/31 07:44:16;;;;;;;2.15;2.03;;;;;;;19.07;nan;98509.94;4995799;28;20038;-62
2022/05/31 07:46:42;;;;;;;2.50;2.30;;;;;;;19.22;nan;98518.66;4988722;28;20375;-62
2022/05/31 07:49:07;;;;;;;1.95;1.92;;;;;;;19.34;nan;98522.31;4994209;28;20034;-63
2022/05/31 07:51:33;;;;;;;2.50;2.40;;;;;;;19.20;nan;98528.28;4991191;28;20037;-63
2022/05/31 07:53:58;;;;;;;2.85;2.63;;;;;;;19.23;nan;98525.50;4989613;28;20378;-63
2022/05/31 07:56:24;;;;;;;2.45;2.25;;;;;;;19.29;nan;98513.94;4988566;28;20542;-63
2022/05/31 07:58:50;;;;;;;4.65;2.33;;;;;;;19.41;nan;98521.03;4991841;28;20035;-63
2022/05/31 08:01:18;;;;;;;2.58;2.38;;;;;;;19.49;nan;98505.88;4993556;28;20049;-63
2022/05/31 08:03:44;;;;;;;2.08;1.70;;;;;;;19.59;nan;98505.28;4989545;28;20448;-61
2022/05/31 08:06:16;;;;;;;4.45;2.17;;;;;;;19.62;nan;98501.66;4987570;28;20038;-62
2022/05/31 08:08:42;;;;;;;3.15;2.13;;;;;;;19.66;nan;98512.69;4987650;28;20027;-61
2022/05/31 08:11:17;;;;;;;2.50;2.30;;;;;;;19.58;nan;98497.53;4991156;28;20039;-62
2022/05/31 08:13:43;;;;;;;2.83;2.53;;;;;;;19.79;nan;98504.09;4989613;28;20037;-61
2022/05/31 08:16:10;;;;;;;3.03;2.28;;;;;;;19.92;nan;98496.41;4990971;28;20393;-61
2022/05/31 08:18:37;;;;;;;2.80;2.70;;;;;;;19.93;nan;98496.34;4992960;28;20058;-61
2022/05/31 08:21:06;;;;;;;6.95;2.83;;;;;;;19.97;nan;98497.00;4989156;28;20045;-61
2022/05/31 08:23:32;;;;;;;2.90;2.58;;;;;;;20.06;nan;98501.66;4988887;28;20092;-61
2022/05/31 08:25:58;;;;;;;2.67;2.47;;;;;;;20.06;nan;98491.25;5004585;28;20129;-61
2022/05/31 08:28:23;;;;;;;2.83;2.63;;;;;;;20.07;nan;98504.16;4987010;28;20141;-61
2022/05/31 08:30:55;;;;;;;3.00;2.80;;;;;;;20.13;nan;98487.34;4987548;28;21112;-62
2022/05/31 08:33:21;;;;;;;3.05;2.85;;;;;;;20.32;nan;98498.38;4988086;28;20034;-61
2022/05/31 08:35:46;;;;;;;2.75;2.58;;;;;;;20.42;nan;98496.84;4988731;28;20042;-61
2022/05/31 08:38:12;;;;;;;4.82;3.05;;;;;;;20.37;nan;98492.84;4989409;28;20180;-61
2022/05/31 08:40:49;;;;;;;2.50;2.30;;;;;;;20.17;nan;98498.41;4989575;28;20484;-61
2022/05/31 08:43:22;;;;;;;2.45;2.25;;;;;;;20.01;nan;98493.28;4988171;28;20070;-61
2022/05/31 08:45:53;;;;;;;3.13;1.90;;;;;;;20.00;nan;98497.66;4991794;28;20038;-61
2022/05/31 08:48:55;;;;;;;2.42;2.33;;;;;;;19.87;nan;98486.28;4992907;28;20473;-61
2022/05/31 08:51:53;;;;;;;2.47;2.22;;;;;;;20.01;nan;98494.13;4988911;28;20532;-61
2022/05/31 08:57:46;;;;;;;3.83;2.38;;;;;;;20.14;nan;98473.41;4992524;28;20116;-62
2022/05/31 09:00:15;;;;;;;2.08;1.92;;;;;;;20.56;nan;98488.22;4987299;28;20049;-62
2022/05/31 09:02:50;;;;;;;2.17;1.98;;;;;;;20.60;nan;98483.63;4986291;28;20696;-62
2022/05/31 09:05:24;;;;;;;;;;;;;;;20.60;nan;98489.69;4988629;28;20045;-62
2022/05/31 09:07:54;;;;;;;5.82;2.65;;;;;;;20.45;nan;98483.66;4987419;28;19971;-62
2022/05/31 09:10:29;;;;;;;2.55;2.33;;;;;;;20.11;nan;98477.97;4987644;28;20038;-63
2022/05/31 09:13:13;;;;;;;2.47;2.28;;;;;;;20.37;nan;98478.06;4988769;28;20153;-64
2022/05/31 09:15:48;;;;;;;2.67;2.43;;;;;;;20.32;nan;98471.50;4988024;28;20049;-64
2022/05/31 09:18:52;;;;;;;2.60;2.40;;;;;;;20.54;nan;98486.63;4986731;28;20038;-63
2022/05/31 09:21:25;;;;;;;5.35;2.20;;;;;;;20.46;nan;98489.69;4987051;28;20062;-63
2022/05/31 09:23:52;;;;;;;2.40;2.20;;;;;;;20.56;nan;98485.59;5004811;28;20396;-64
2022/05/31 09:26:29;;;;;;;5.60;2.45;;;;;;;20.47;nan;98486.16;4991934;28;20034;-65
2022/05/31 09:29:18;;;;;;;2.22;2.03;;;;;;;20.51;nan;98477.22;4989774;28;20530;-62
2022/05/31 09:32:01;;;;;;;2.10;2.00;;;;;;;20.79;nan;98478.97;4992033;28;20141;-63
2022/05/31 09:34:27;;;;;;;1.88;1.83;;;;;;;21.05;nan;98483.34;4996124;28;20521;-63
2022/05/31 09:37:19;;;;;;;1.83;1.73;;;;;;;21.36;nan;98479.66;4993678;28;20140;-64
2022/05/31 09:39:55;;;;;;;1.88;1.77;;;;;;;21.33;nan;98466.81;4972348;28;20407;-64
2022/05/31 09:42:29;;;;;;;3.92;2.00;;;;;;;21.30;nan;98457.41;5007483;28;20041;-65
2022/05/31 09:45:19;;;;;;;2.63;1.80;;;;;;;21.23;nan;98477.00;4993977;28;20117;-64
2022/05/31 09:47:44;;;;;;;2.08;1.67;;;;;;;21.16;nan;98467.91;4985078;28;20119;-65
2022/05/31 09:50:10;;;;;;;1.70;1.60;;;;;;;21.46;nan;98475.50;4990923;28;20329;-65
2022/05/31 09:52:42;;;;;;;1.98;1.88;;;;;;;21.30;nan;98473.03;4992280;28;20049;-65
2022/05/31 09:58:03;;;;;;;2.35;2.17;;;;;;;21.82;nan;98462.63;4990814;28;20099;-64
2022/05/31 10:00:29;;;;;;;1.92;1.80;;;;;;;21.77;nan;98467.31;4993731;28;20042;-65
2022/05/31 10:03:02;;;;;;;3.92;1.98;;;;;;;22.06;nan;98461.94;4992612;28;20112;-64
2022/05/31 10:05:28;;;;;;;2.00;1.90;;;;;;;22.22;nan;98458.19;4989217;28;20056;-64
2022/05/31 10:07:54;;;;;;;2.03;1.92;;;;;;;22.40;nan;98456.06;4990414;28;20034;-64
2022/05/31 10:10:34;;;;;;;1.90;1.80;;;;;;;22.55;nan;98448.91;4994204;28;20034;-64
2022/05/31 10:13:09;;;;;;;2.17;2.00;;;;;;;22.56;nan;98440.97;4992608;28;20609;-63
2022/05/31 10:15:46;;;;;;;1.98;1.88;;;;;;;22.58;nan;98440.84;4998196;28;20464;-64
2022/05/31 10:18:22;;;;;;;3.97;1.75;;;;;;;22.42;nan;98442.88;4989604;28;20080;-64
2022/05/31 10:20:57;;;;;;;2.00;1.73;;;;;;;22.40;nan;98431.72;4990991;28;20049;-64
2022/05/31 10:23:29;;;;;;;2.00;1.63;;;;;;;22.65;nan;98436.88;4992176;28;20366;-64
2022/05/31 10:25:57;;;;;;;1.95;1.73;;;;;;;22.75;nan;98425.69;4990643;28;20034;-64
2022/05/31 10:28:40;;;;;;;3.03;1.85;;;;;;;22.99;nan;98435.34;4991200;28;20034;-64
2022/05/31 10:31:08;;;;;;;2.58;1.90;;;;;;;23.14;nan;98427.19;5000008;28;20568;-64
2022/05/31 10:33:34;;;;;;;2.88;1.73;;;;;;;23.08;nan;98421.59;4989296;28;20844;-59
2022/05/31 10:36:06;;;;;;;3.90;1.90;;;;;;;23.14;nan;98414.13;4990685;28;20553;-62
2022/05/31 10:38:32;;;;;;;3.70;2.00;;;;;;;23.06;nan;98413.00;4993536;28;20125;-59
2022/05/31 10:41:01;;;;;;;2.13;2.00;;;;;;;23.10;nan;98412.66;4991412;28;20040;-59
2022/05/31 10:43:37;;;;;;;3.15;2.00;;;;;;;23.30;nan;98420.84;4988078;28;20034;-60
2022/05/31 10:46:34;;;;;;;2.70;1.83;;;;;;;23.48;nan;98420.34;4989990;28;20046;-61
2022/05/31 10:49:17;;;;;;;2.13;1.95;;;;;;;23.55;nan;98407.63;4992913;28;20601;-60
2022/05/31 10:51:53;;;;;;;2.10;1.92;;;;;;;23.36;nan;98402.91;4988683;28;20647;-61
2022/05/31 10:54:30;;;;;;;2.78;2.20;;;;;;;23.51;nan;98401.78;4987738;28;20064;-61
2022/05/31 10:57:11;;;;;;;2.58;2.25;;;;;;;23.57;nan;98406.56;4991638;28;20595;-61
2022/05/31 10:59:44;;;;;;;1.75;1.65;;;;;;;23.81;nan;98403.00;4986782;28;20121;-60
2022/05/31 11:02:40;;;;;;;2.25;2.10;;;;;;;23.83;nan;98408.97;4988378;28;20045;-60
2022/05/31 11:05:10;;;;;;;2.38;2.10;;;;;;;23.55;nan;98384.09;4987579;28;20580;-60
2022/05/31 11:11:32;;;;;;;2.28;2.08;;;;;;;23.78;nan;98401.47;4990767;28;20050;-59
2022/05/31 11:14:35;;;;;;;1.90;1.80;;;;;;;24.01;nan;98392.69;4990203;28;20038;-60
2022/05/31 11:17:06;;;;;;;1.88;1.77;;;;;;;24.00;nan;98390.19;4989323;28;20044;-60
2022/05/31 11:19:33;;;;;;;1.88;1.75;;;;;;;24.28;nan;98387.09;4988102;28;20100;-60
2022/05/31 11:22:07;;;;;;;2.00;1.90;;;;;;;24.29;nan;98388.78;4988493;28;20042;-61
2022/05/31 11:24:58;;;;;;;2.80;1.52;;;;;;;24.36;nan;98384.72;4989204;28;20439;-61
2022/05/31 11:27:51;;;;;;;2.13;1.85;;;;;;;24.41;nan;98385.19;4989397;28;20041;-60
2022/05/31 11:30:26;;;;;;;1.83;1.73;;;;;;;24.42;nan;98381.63;4991153;28;20042;-61
2022/05/31 11:33:16;;;;;;;1.95;1.73;;;;;;;24.44;nan;98376.28;4990532;28;20133;-59
2022/05/31 11:36:07;;;;;;;1.95;1.85;;;;;;;24.27;nan;98359.25;4990412;28;20227;-59
2022/05/31 11:38:54;;;;;;;2.47;2.05;;;;;;;24.51;nan;98359.09;4991785;28;20030;-59
2022/05/31 11:42:00;;;;;;;2.10;2.00;;;;;;;24.70;nan;98368.91;4992848;28;20033;-59
2022/05/31 11:44:40;;;;;;;3.25;2.08;;;;;;;24.77;nan;98370.09;4979227;28;20058;-60
2022/05/31 11:47:06;;;;;;;1.90;1.80;;;;;;;24.89;nan;98371.75;4987757;28;20074;-60
2022/05/31 11:49:48;;;;;;;4.85;4.50;;;;;;;24.74;nan;98371.16;4989954;28;20128;-57
2022/05/31 11:52:13;;;;;;;5.22;3.35;;;;;;;24.96;nan;98370.28;4993033;28;20069;-60
2022/05/31 11:54:38;;;;;;;1.50;1.50;;;;;;;24.87;nan;98353.50;4990043;28;20417;-60
2022/05/31 11:57:20;;;;;;;4.30;1.58;;;;;;;24.99;nan;98359.56;4991124;28;20034;-60
2022/05/31 12:00:06;;;;;;;1.73;1.73;;;;;;;24.90;nan;98360.31;4990965;28;20038;-63
2022/05/31 12:02:40;;;;;;;1.90;1.75;;;;;;;24.86;nan;98358.91;4989127;28;20149;-61
2022/05/31 12:05:31;;;;;;;2.00;1.80;;;;;;;24.99;nan;98354.31;4990653;28;20033;-60
2022/05/31 12:08:08;;;;;;;2.00;1.90;;;;;;;25.08;nan;98348.28;4992910;28;20104;-60
2022/05/31 12:10:53;;;;;;;1.73;1.73;;;;;;;25.18;nan;98349.22;4988957;28;20045;-58
2022/05/31 12:13:19;;;;;;;;;;;;;;;25.29;nan;98343.09;4988330;28;20532;-59
2022/05/31 12:15:49;;;;;;;3.35;2.10;;;;;;;25.34;nan;98344.34;4987328;28;19914;-61
2022/05/31 12:18:37;;;;;;;2.03;1.92;;;;;;;25.42;nan;98348.94;4986870;28;20042;-63
2022/05/31 12:21:14;;;;;;;2.28;2.17;;;;;;;25.17;nan;98350.16;4989344;28;20031;-63
2022/05/31 12:24:17;;;;;;;4.13;3.72;;;;;;;25.30;nan;98345.56;4987144;28;20066;-64
2022/05/31 12:26:54;;;;;;;2.15;2.05;;;;;;;25.34;nan;98327.75;4969558;28;20034;-63